createdAt,value
2023-02-27T00:01:47.779Z,71.60
2023-02-27T00:04:17.058Z,74.10
2023-02-27T00:06:45.918Z,66.70
2023-02-27T00:09:24.478Z,69.30
2023-02-27T00:11:53.774Z,59.70
2023-02-27T00:14:22.808Z,76.90
2023-02-27T00:16:59.218Z,68.40
2023-02-27T00:19:29.913Z,70.70
2023-02-27T00:21:58.775Z,64.60
2023-02-27T00:24:34.638Z,75.20
2023-02-27T00:27:09.868Z,57.20
2023-02-27T00:29:39.938Z,60.00
2023-02-27T00:32:09.746Z,60.60
2023-02-27T00:34:38.719Z,45.00
2023-02-27T00:37:07.345Z,36.90
2023-02-27T00:39:37.409Z,32.70
2023-02-27T00:42:09.557Z,28.10
2023-02-27T00:44:40.783Z,13.60
2023-02-27T00:47:09.506Z,13.30
2023-02-27T00:49:38.500Z,10.30
2023-02-27T00:52:07.387Z,10.30
2023-02-27T00:54:38.631Z,16.10
2023-02-27T00:57:07.733Z,8.30
2023-02-27T00:59:36.622Z,16.60
2023-02-27T01:02:05.543Z,12.80
2023-02-27T01:04:37.438Z,11.70
2023-02-27T01:07:07.220Z,11.60
2023-02-27T01:09:35.890Z,12.00
2023-02-27T01:12:04.537Z,18.60
2023-02-27T01:14:33.584Z,28.40
2023-02-27T01:17:02.442Z,53.40
2023-02-27T01:19:31.291Z,59.70
2023-02-27T01:21:59.820Z,52.40
2023-02-27T01:24:30.805Z,66.50
2023-02-27T01:26:59.796Z,69.10
2023-02-27T01:29:29.152Z,84.80
2023-02-27T01:31:57.994Z,78.30
2023-02-27T01:34:26.796Z,85.50
2023-02-27T01:36:55.410Z,93.20
2023-02-27T01:39:25.123Z,102.10
2023-02-27T01:41:53.769Z,74.80
2023-02-27T01:44:22.616Z,77.60
2023-02-27T01:46:53.090Z,69.80
2023-02-27T01:49:31.597Z,56.00
2023-02-27T01:52:08.628Z,46.00
2023-02-27T01:54:40.059Z,37.30
2023-02-27T01:57:08.636Z,32.80
2023-02-27T01:59:39.941Z,35.70
2023-02-27T02:02:14.632Z,35.20
2023-02-27T02:04:43.156Z,26.70
2023-02-27T02:07:17.350Z,33.10
2023-02-27T02:09:51.053Z,31.30
2023-02-27T02:12:21.995Z,27.40
2023-02-27T02:14:51.402Z,20.00
2023-02-27T02:17:22.660Z,16.40
2023-02-27T02:19:54.607Z,18.20
2023-02-27T02:22:36.018Z,19.30
2023-02-27T02:25:23.625Z,20.20
2023-02-27T02:28:08.509Z,21.60
2023-02-27T02:30:56.126Z,32.40
2023-02-27T02:33:31.573Z,35.90
2023-02-27T02:36:22.315Z,44.40
2023-02-27T02:38:52.939Z,59.50
2023-02-27T02:41:26.311Z,103.50
2023-02-27T02:44:03.561Z,135.60
2023-02-27T02:46:35.498Z,91.90
2023-02-27T02:49:29.708Z,52.90
2023-02-27T02:52:03.809Z,52.70
2023-02-27T02:54:45.761Z,55.70
2023-02-27T02:57:39.049Z,207.60
2023-02-27T03:00:12.527Z,113.10
2023-02-27T03:02:50.559Z,55.00
2023-02-27T03:05:23.058Z,67.20
2023-02-27T03:07:55.989Z,75.30
2023-02-27T03:10:31.169Z,74.50
2023-02-27T03:13:02.807Z,72.50
2023-02-27T03:18:17.712Z,39.20
2023-02-27T03:20:58.251Z,15.10
2023-02-27T03:23:35.208Z,11.90
2023-02-27T03:26:05.139Z,9.50
2023-02-27T03:28:36.160Z,7.40
2023-02-27T03:31:20.123Z,9.20
2023-02-27T03:33:55.928Z,8.20
2023-02-27T03:36:38.705Z,6.40
2023-02-27T03:42:04.246Z,6.00
2023-02-27T03:45:27.088Z,8.00
2023-02-27T03:47:56.206Z,6.80
2023-02-27T03:50:25.691Z,7.10
2023-02-27T03:52:55.016Z,5.40
2023-02-27T03:55:27.016Z,5.20
2023-02-27T03:57:55.760Z,4.60
2023-02-27T04:00:25.143Z,6.40
2023-02-27T04:02:57.614Z,6.60
2023-02-27T04:05:27.804Z,6.60
2023-02-27T04:08:08.679Z,6.90
2023-02-27T04:10:44.992Z,12.00
2023-02-27T04:13:55.361Z,13.50
2023-02-27T04:16:50.716Z,6.80
2023-02-27T04:19:29.680Z,8.50
2023-02-27T04:22:05.145Z,10.20
2023-02-27T04:24:39.765Z,7.60
2023-02-27T04:27:11.566Z,9.70
2023-02-27T04:29:59.925Z,6.60
2023-02-27T04:32:45.256Z,9.90
2023-02-27T04:35:17.659Z,7.50
2023-02-27T04:37:50.106Z,8.10
2023-02-27T04:40:21.173Z,11.10
2023-02-27T04:42:55.158Z,9.40
2023-02-27T04:45:26.179Z,7.60
2023-02-27T04:48:07.286Z,8.30
2023-02-27T04:50:46.557Z,9.80
2023-02-27T04:53:19.090Z,11.10
2023-02-27T04:55:55.068Z,11.50
2023-02-27T04:58:38.064Z,24.50
2023-02-27T05:01:13.808Z,32.40
2023-02-27T05:03:48.444Z,29.90
2023-02-27T05:06:18.544Z,35.40
2023-02-27T05:09:01.620Z,31.70
2023-02-27T05:14:19.045Z,36.50
2023-02-27T05:17:01.928Z,37.90
2023-02-27T05:19:32.603Z,45.90
2023-02-27T05:22:35.857Z,48.60
2023-02-27T05:27:47.302Z,37.20
2023-02-27T05:30:30.576Z,41.00
2023-02-27T05:33:12.284Z,42.30
2023-02-27T05:35:53.292Z,39.80
2023-02-27T05:38:26.486Z,43.30
2023-02-27T05:40:58.497Z,48.40
2023-02-27T05:46:28.098Z,74.10
2023-02-27T05:49:35.833Z,66.30
2023-02-27T05:52:05.249Z,74.10
2023-02-27T05:54:39.884Z,65.20
2023-02-27T05:57:10.777Z,66.50
2023-02-27T05:59:43.928Z,63.80
2023-02-27T06:02:12.729Z,72.30
2023-02-27T06:04:41.604Z,66.30
2023-02-27T06:07:13.124Z,63.60
2023-02-27T06:09:44.892Z,75.80
2023-02-27T06:12:14.061Z,78.20
2023-02-27T06:14:42.912Z,77.40
2023-02-27T06:17:12.990Z,98.70
2023-02-27T06:19:41.508Z,160.60
2023-02-27T06:22:11.470Z,175.30
2023-02-27T06:24:40.479Z,144.90
2023-02-27T06:27:09.620Z,123.70
2023-02-27T06:29:38.473Z,132.90
2023-02-27T06:32:07.125Z,119.30
2023-02-27T06:34:35.876Z,87.80
2023-02-27T06:37:04.796Z,104.90
2023-02-27T06:39:33.670Z,70.40
2023-02-27T06:42:02.826Z,114.80
2023-02-27T06:44:31.909Z,122.30
2023-02-27T06:47:00.596Z,107.10
2023-02-27T06:49:29.421Z,119.70
2023-02-27T06:51:58.683Z,138.50
2023-02-27T06:54:28.025Z,113.20
2023-02-27T06:56:56.834Z,128.10
2023-02-27T06:59:25.536Z,112.80
2023-02-27T07:01:54.129Z,112.80
2023-02-27T07:04:22.858Z,114.50
2023-02-27T07:07:34.391Z,125.30
2023-02-27T07:09:44.836Z,110.40
2023-02-27T07:12:13.647Z,92.90
2023-02-27T07:14:42.237Z,104.80
2023-02-27T07:17:11.311Z,94.20
2023-02-27T07:19:40.302Z,86.20
2023-02-27T07:22:09.924Z,70.60
2023-02-27T07:24:38.397Z,77.50
2023-02-27T07:27:07.467Z,111.10
2023-02-27T07:29:36.949Z,110.10
2023-02-27T07:32:05.777Z,99.40
2023-02-27T07:34:35.192Z,136.30
2023-02-27T07:37:06.929Z,76.70
2023-02-27T07:39:36.247Z,71.80
2023-02-27T07:42:04.957Z,112.80
2023-02-27T07:44:36.134Z,104.60
2023-02-27T07:47:04.798Z,95.70
2023-02-27T07:49:34.729Z,97.60
2023-02-27T07:52:03.428Z,108.40
2023-02-27T07:54:35.329Z,110.90
2023-02-27T07:57:05.648Z,130.90
2023-02-27T07:59:34.871Z,108.10
2023-02-27T08:02:04.255Z,114.60
2023-02-27T08:04:34.470Z,111.10
2023-02-27T08:07:03.577Z,127.60
2023-02-27T08:09:32.520Z,130.20
2023-02-27T08:12:03.204Z,114.50
2023-02-27T08:14:32.199Z,74.90
2023-02-27T08:17:01.488Z,92.30
2023-02-27T08:19:30.190Z,88.10
2023-02-27T08:21:58.871Z,90.60
2023-02-27T08:24:27.469Z,75.20
2023-02-27T08:26:57.527Z,99.40
2023-02-27T08:29:27.081Z,102.90
2023-02-27T08:31:56.305Z,103.00
2023-02-27T08:34:25.940Z,90.20
2023-02-27T08:36:55.276Z,89.50
2023-02-27T08:39:27.061Z,102.30
2023-02-27T08:41:55.942Z,78.50
2023-02-27T08:44:24.860Z,84.40
2023-02-27T08:46:54.197Z,92.30
2023-02-27T08:49:25.555Z,77.90
2023-02-27T08:51:54.456Z,72.60
2023-02-27T08:54:23.709Z,62.70
2023-02-27T08:56:53.084Z,63.30
2023-02-27T08:59:21.792Z,72.00
2023-02-27T09:01:52.370Z,69.70
2023-02-27T09:04:21.442Z,48.90
2023-02-27T09:06:50.129Z,48.00
2023-02-27T09:09:19.009Z,70.40
2023-02-27T09:11:48.589Z,54.80
2023-02-27T09:14:17.390Z,82.60
2023-02-27T09:16:52.117Z,77.70
2023-02-27T09:19:21.255Z,79.00
2023-02-27T09:21:49.831Z,78.80
2023-02-27T09:24:20.848Z,102.40
2023-02-27T09:26:50.532Z,87.40
2023-02-27T09:29:19.900Z,108.50
2023-02-27T09:31:49.488Z,111.90
2023-02-27T09:34:18.244Z,114.70
2023-02-27T09:36:47.842Z,97.50
2023-02-27T09:39:17.450Z,64.10
2023-02-27T09:41:56.799Z,71.10
2023-02-27T09:44:46.282Z,93.50
2023-02-27T09:47:24.801Z,77.50
2023-02-27T09:50:01.063Z,93.40
2023-02-27T09:52:32.117Z,89.80
2023-02-27T09:55:01.024Z,89.00
2023-02-27T09:58:02.166Z,86.40
2023-02-27T10:00:44.436Z,91.50
2023-02-27T10:03:26.474Z,71.60
2023-02-27T10:06:33.317Z,89.90
2023-02-27T10:09:15.413Z,68.30
2023-02-27T10:11:47.500Z,47.10
2023-02-27T10:14:41.846Z,57.00
2023-02-27T10:17:35.132Z,94.50
2023-02-27T10:20:09.882Z,82.50
2023-02-27T10:22:42.183Z,78.30
2023-02-27T10:25:31.332Z,98.60
2023-02-27T10:28:12.359Z,104.80
2023-02-27T10:30:41.460Z,103.20
2023-02-27T10:33:45.120Z,72.90
2023-02-27T10:36:32.582Z,62.90
2023-02-27T10:39:06.593Z,67.90
2023-02-27T10:41:36.508Z,61.10
2023-02-27T10:44:06.139Z,93.50
2023-02-27T10:46:35.820Z,103.10
2023-02-27T10:49:19.036Z,129.80
2023-02-27T10:52:09.046Z,121.60
2023-02-27T10:54:38.345Z,86.70
2023-02-27T10:57:26.624Z,76.00
2023-02-27T11:00:03.992Z,92.20
2023-02-27T11:02:40.320Z,127.20
2023-02-27T11:05:45.503Z,119.90
2023-02-27T11:08:27.242Z,114.50
2023-02-27T11:11:11.041Z,100.40
2023-02-27T11:13:43.520Z,98.40
2023-02-27T11:16:14.506Z,106.70
2023-02-27T11:18:48.932Z,65.40
2023-02-27T11:21:29.427Z,62.30
2023-02-27T11:24:20.049Z,62.20
2023-02-27T11:27:00.147Z,56.10
2023-02-27T11:29:29.405Z,72.40
2023-02-27T11:32:05.281Z,80.60
2023-02-27T11:34:40.187Z,83.80
2023-02-27T11:37:29.330Z,86.10
2023-02-27T11:40:13.505Z,93.30
2023-02-27T11:42:46.144Z,97.70
2023-02-27T11:46:13.313Z,100.50
2023-02-27T11:48:12.848Z,85.60
2023-02-27T11:51:00.168Z,109.40
2023-02-27T11:53:39.623Z,109.80
2023-02-27T11:56:11.104Z,115.30
2023-02-27T11:58:47.985Z,145.40
2023-02-27T12:01:23.788Z,146.40
2023-02-27T12:04:02.112Z,116.90
2023-02-27T12:06:37.496Z,82.70
2023-02-27T12:09:13.162Z,70.90
2023-02-27T12:11:45.173Z,49.50
2023-02-27T12:14:18.443Z,40.90
2023-02-27T12:16:54.351Z,45.90
2023-02-27T12:19:38.983Z,53.60
2023-02-27T12:22:35.831Z,75.40
2023-02-27T12:25:12.893Z,64.80
2023-02-27T12:27:52.264Z,59.30
2023-02-27T12:30:29.192Z,74.50
2023-02-27T12:33:13.157Z,67.60
2023-02-27T12:35:43.392Z,64.30
2023-02-27T12:38:13.755Z,49.60
2023-02-27T12:41:18.747Z,49.30
2023-02-27T12:43:56.610Z,48.70
2023-02-27T12:46:49.714Z,62.60
2023-02-27T12:49:25.760Z,40.90
2023-02-27T12:52:12.262Z,29.20
2023-02-27T12:54:54.073Z,38.60
2023-02-27T12:57:38.137Z,29.60
2023-02-27T13:00:19.223Z,108.60
2023-02-27T13:03:23.496Z,63.50
2023-02-27T13:06:17.006Z,21.50
2023-02-27T13:08:54.712Z,32.60
2023-02-27T13:11:38.520Z,24.80
2023-02-27T13:14:28.277Z,36.30
2023-02-27T13:17:02.314Z,32.30
2023-02-27T13:19:35.040Z,23.50
2023-02-27T13:24:43.856Z,29.20
2023-02-27T13:27:26.556Z,24.50
2023-02-27T13:30:08.119Z,28.30
2023-02-27T13:32:47.074Z,23.00
2023-02-27T13:35:42.206Z,28.00
2023-02-27T13:38:33.178Z,30.20
2023-02-27T13:41:20.203Z,53.60
2023-02-27T13:43:53.252Z,44.70
2023-02-27T13:46:28.820Z,49.00
2023-02-27T13:49:06.239Z,50.70
2023-02-27T13:51:34.990Z,48.80
2023-02-27T13:54:18.707Z,54.90
2023-02-27T13:56:59.612Z,71.10
2023-02-27T13:59:42.279Z,61.30
2023-02-27T14:02:13.653Z,49.80
2023-02-27T14:04:53.814Z,63.30
2023-02-27T14:07:24.298Z,57.60
2023-02-27T14:10:00.217Z,60.90
2023-02-27T14:12:44.048Z,82.00
2023-02-27T14:15:18.195Z,100.90
2023-02-27T14:17:54.435Z,68.00
2023-02-27T14:20:30.591Z,54.30
2023-02-27T14:23:17.479Z,56.70
2023-02-27T14:25:51.791Z,66.40
2023-02-27T14:28:32.030Z,52.00
2023-02-27T14:31:09.201Z,62.00
2023-02-27T14:33:54.296Z,80.00
2023-02-27T14:36:24.717Z,47.90
2023-02-27T14:38:57.840Z,47.60
2023-02-27T14:41:38.667Z,30.80
2023-02-27T14:44:22.557Z,30.40
2023-02-27T14:46:53.552Z,20.40
2023-02-27T14:49:29.745Z,20.70
2023-02-27T14:52:12.492Z,13.90
2023-02-27T14:54:44.795Z,17.80
2023-02-27T14:57:26.835Z,12.50
2023-02-27T14:59:55.440Z,10.90
2023-02-27T15:02:30.940Z,7.30
2023-02-27T15:05:03.622Z,10.40
2023-02-27T15:07:45.347Z,17.10
2023-02-27T15:10:20.741Z,14.50
2023-02-27T15:12:50.028Z,12.00
2023-02-27T15:15:20.833Z,14.20
2023-02-27T15:17:54.872Z,24.40
2023-02-27T15:20:25.684Z,18.20
2023-02-27T15:22:54.250Z,20.50
2023-02-27T15:25:34.627Z,9.00
2023-02-27T15:28:16.126Z,15.60
2023-02-27T15:30:49.543Z,15.50
2023-02-27T15:33:24.929Z,13.40
2023-02-27T15:35:53.694Z,13.60
2023-02-27T15:38:34.757Z,12.00
2023-02-27T15:41:03.925Z,10.60
2023-02-27T15:43:32.990Z,12.20
2023-02-27T15:46:02.068Z,13.40
2023-02-27T15:48:31.171Z,31.70
2023-02-27T15:51:01.280Z,16.00
2023-02-27T15:53:31.079Z,20.30
2023-02-27T15:56:01.817Z,51.10
2023-02-27T15:58:35.220Z,28.30
2023-02-27T16:01:09.445Z,16.50
2023-02-27T16:03:44.439Z,22.40
2023-02-27T16:06:23.594Z,23.40
2023-02-27T16:08:58.163Z,20.80
2023-02-27T16:11:37.525Z,13.30
2023-02-27T16:14:08.859Z,19.50
2023-02-27T16:16:38.720Z,24.90
2023-02-27T16:19:16.841Z,7.70
2023-02-27T16:22:03.735Z,7.90
2023-02-27T16:24:34.153Z,9.70
2023-02-27T16:27:03.428Z,8.60
2023-02-27T16:29:44.471Z,12.90
2023-02-27T16:32:25.572Z,13.60
2023-02-27T16:35:08.810Z,15.30
2023-02-27T16:37:39.114Z,24.20
2023-02-27T16:40:20.572Z,35.90
2023-02-27T16:42:49.761Z,45.20
2023-02-27T16:45:24.010Z,21.70
2023-02-27T16:47:55.128Z,9.70
2023-02-27T16:50:32.740Z,9.40
2023-02-27T16:53:01.690Z,6.00
2023-02-27T16:55:33.750Z,33.50
2023-02-27T16:58:03.113Z,25.80
2023-02-27T17:00:34.358Z,17.30
2023-02-27T17:03:03.379Z,13.50
2023-02-27T17:05:32.105Z,7.70
2023-02-27T17:08:03.014Z,24.50
2023-02-27T17:10:31.775Z,21.60
2023-02-27T17:13:01.505Z,16.00
2023-02-27T17:15:30.785Z,20.20
2023-02-27T17:18:00.913Z,45.40
2023-02-27T17:20:30.438Z,48.60
2023-02-27T17:23:00.197Z,52.30
2023-02-27T17:25:30.234Z,69.20
2023-02-27T17:27:59.217Z,73.60
2023-02-27T17:30:27.849Z,120.20
2023-02-27T17:32:58.714Z,107.70
2023-02-27T17:35:30.455Z,114.00
2023-02-27T17:37:59.912Z,113.40
2023-02-27T17:40:30.916Z,101.70
2023-02-27T17:42:59.863Z,82.50
2023-02-27T17:45:30.880Z,55.30
2023-02-27T17:47:59.914Z,54.10
2023-02-27T17:50:28.759Z,86.70
2023-02-27T17:52:58.541Z,117.30
2023-02-27T17:55:27.153Z,120.70
2023-02-27T17:57:59.341Z,153.30
2023-02-27T18:00:28.010Z,108.30
2023-02-27T18:02:57.737Z,50.20
2023-02-27T18:05:26.752Z,29.60
2023-02-27T18:07:57.763Z,16.20
2023-02-27T18:10:28.793Z,20.40
2023-02-27T18:12:57.646Z,21.80
2023-02-27T18:15:27.434Z,38.00
2023-02-27T18:17:55.938Z,32.20
2023-02-27T18:20:24.489Z,46.10
2023-02-27T18:22:53.294Z,21.20
2023-02-27T18:25:23.645Z,25.90
2023-02-27T18:27:55.249Z,17.50
2023-02-27T18:30:24.955Z,15.90
2023-02-27T18:32:56.654Z,11.80
2023-02-27T18:35:25.591Z,12.50
2023-02-27T18:37:54.661Z,9.40
2023-02-27T18:40:25.296Z,12.80
2023-02-27T18:42:55.734Z,14.40
2023-02-27T18:45:24.944Z,18.70
2023-02-27T18:47:54.448Z,15.90
2023-02-27T18:50:23.639Z,28.70
2023-02-27T18:52:52.797Z,33.80
2023-02-27T18:55:21.462Z,28.30
2023-02-27T18:57:51.168Z,12.70
2023-02-27T19:00:22.009Z,14.10
2023-02-27T19:02:51.926Z,7.80
2023-02-27T19:05:22.313Z,15.80
2023-02-27T19:07:54.129Z,11.10
2023-02-27T19:10:28.470Z,28.00
2023-02-27T19:12:58.895Z,22.80
2023-02-27T19:15:28.908Z,31.40
2023-02-27T19:17:58.775Z,27.20
2023-02-27T19:20:27.844Z,16.50
2023-02-27T19:22:56.889Z,21.90
2023-02-27T19:25:25.744Z,27.40
2023-02-27T19:27:56.228Z,34.00
2023-02-27T19:30:25.663Z,18.30
2023-02-27T19:32:55.541Z,48.10
2023-02-27T19:35:24.512Z,50.20
2023-02-27T19:37:58.416Z,54.30
2023-02-27T19:40:31.634Z,53.70
2023-02-27T19:43:01.266Z,69.00
2023-02-27T19:45:30.225Z,34.10
2023-02-27T19:48:01.850Z,26.40
2023-02-27T19:50:31.137Z,30.00
2023-02-27T19:53:00.278Z,24.50
2023-02-27T19:55:29.184Z,26.80
2023-02-27T19:57:59.577Z,28.00
2023-02-27T20:00:28.221Z,26.40
2023-02-27T20:02:57.268Z,23.00
2023-02-27T20:05:26.263Z,22.30
2023-02-27T20:07:55.204Z,27.50
2023-02-27T20:10:26.260Z,26.30
2023-02-27T20:12:55.458Z,26.80
2023-02-27T20:15:31.115Z,29.00
2023-02-27T20:18:00.314Z,25.20
2023-02-27T20:20:31.729Z,27.20
2023-02-27T20:23:00.834Z,33.70
2023-02-27T20:25:29.820Z,39.70
2023-02-27T20:27:59.638Z,42.90
2023-02-27T20:30:28.482Z,54.20
2023-02-27T20:32:58.622Z,44.00
2023-02-27T20:35:27.316Z,63.00
2023-02-27T20:37:58.618Z,47.90
2023-02-27T20:40:29.417Z,41.20
2023-02-27T20:42:58.675Z,43.00
2023-02-27T20:45:28.546Z,63.20
2023-02-27T20:47:57.231Z,58.80
2023-02-27T20:50:25.935Z,46.50
2023-02-27T20:52:55.397Z,28.60
2023-02-27T20:55:24.050Z,24.80
2023-02-27T20:57:52.575Z,28.30
2023-02-27T21:00:22.313Z,26.20
2023-02-27T21:02:51.269Z,31.80
2023-02-27T21:05:20.120Z,44.90
2023-02-27T21:07:51.115Z,47.50
2023-02-27T21:10:19.948Z,64.20
2023-02-27T21:12:53.569Z,54.10
2023-02-27T21:15:28.634Z,43.50
2023-02-27T21:17:57.233Z,53.40
2023-02-27T21:20:26.924Z,35.60
2023-02-27T21:22:56.106Z,41.40
2023-02-27T21:25:25.398Z,45.10
2023-02-27T21:28:02.473Z,34.80
2023-02-27T21:30:31.958Z,35.30
2023-02-27T21:33:03.396Z,65.40
2023-02-27T21:38:01.838Z,45.20
2023-02-27T21:40:30.244Z,53.00
2023-02-27T21:42:59.573Z,66.90
2023-02-27T21:45:28.558Z,66.90
2023-02-27T21:47:58.969Z,31.20
2023-02-27T21:50:29.408Z,47.20
2023-02-27T21:52:59.268Z,40.70
2023-02-27T21:55:27.786Z,50.30
2023-02-27T21:58:04.293Z,42.30
2023-02-27T22:00:37.189Z,33.50
2023-02-27T22:03:06.418Z,42.00
2023-02-27T22:05:36.360Z,47.20
2023-02-27T22:08:04.980Z,76.40
2023-02-27T22:10:45.908Z,71.80
2023-02-27T22:13:14.969Z,104.50
2023-02-27T22:15:43.589Z,83.90
2023-02-27T22:18:15.007Z,88.60
2023-02-27T22:20:44.064Z,97.00
2023-02-27T22:23:13.345Z,83.60
2023-02-27T22:25:42.847Z,87.40
2023-02-27T22:28:11.427Z,70.80
2023-02-27T22:30:40.101Z,77.40
2023-02-27T22:33:09.208Z,78.80
2023-02-27T22:35:38.425Z,82.20
2023-02-27T22:38:07.353Z,99.80
2023-02-27T22:40:40.537Z,122.60
2023-02-27T22:43:11.505Z,97.60
2023-02-27T22:45:46.403Z,105.60
2023-02-27T22:48:14.916Z,128.40
2023-02-27T22:50:46.504Z,91.30
2023-02-27T22:53:15.439Z,85.40
2023-02-27T22:55:53.217Z,105.20
2023-02-27T22:58:25.668Z,64.50
2023-02-27T23:00:54.768Z,58.10
2023-02-27T23:03:23.860Z,68.40
2023-02-27T23:05:52.507Z,81.30
2023-02-27T23:08:21.881Z,47.70
2023-02-27T23:10:53.868Z,81.00
2023-02-27T23:13:22.374Z,64.40
2023-02-27T23:15:51.585Z,76.20
2023-02-27T23:18:23.411Z,53.10
2023-02-27T23:20:53.552Z,63.10
2023-02-27T23:23:23.079Z,53.20
2023-02-27T23:25:52.855Z,35.20
2023-02-27T23:28:23.960Z,31.30
2023-02-27T23:30:52.656Z,25.70
2023-02-27T23:33:21.252Z,29.60
2023-02-27T23:35:49.944Z,30.10
2023-02-27T23:38:19.081Z,36.80
2023-02-27T23:40:50.116Z,60.70
2023-02-27T23:43:19.222Z,36.10
2023-02-27T23:45:48.477Z,41.30
2023-02-27T23:48:17.614Z,35.90
2023-02-27T23:50:48.570Z,25.80
2023-02-27T23:53:17.509Z,28.20
2023-02-27T23:55:46.197Z,31.10
2023-02-27T23:58:15.600Z,31.50
